createdAt,value
2022-12-11T00:01:17.611Z,73.33
2022-12-11T00:03:48.153Z,73.56
2022-12-11T00:06:20.123Z,73.88
2022-12-11T00:08:53.212Z,73.71
2022-12-11T00:11:23.178Z,73.58
2022-12-11T00:13:51.421Z,73.51
2022-12-11T00:16:25.317Z,73.92
2022-12-11T00:18:55.717Z,74.07
2022-12-11T00:21:23.900Z,73.88
2022-12-11T00:23:52.325Z,74.06
2022-12-11T00:26:21.037Z,73.75
2022-12-11T00:28:54.349Z,73.38
2022-12-11T00:31:23.815Z,73.32
2022-12-11T00:33:52.330Z,73.07
2022-12-11T00:36:24.458Z,73.34
2022-12-11T00:38:53.975Z,73.34
2022-12-11T00:41:22.857Z,73.28
2022-12-11T00:43:51.284Z,73.21
2022-12-11T00:46:19.756Z,73.12
2022-12-11T00:48:50.066Z,73.18
2022-12-11T00:51:18.364Z,73.34
2022-12-11T00:53:46.857Z,73.16
2022-12-11T00:56:21.009Z,73.59
2022-12-11T00:58:49.985Z,73.73
2022-12-11T01:01:21.423Z,73.84
2022-12-11T01:03:50.222Z,73.89
2022-12-11T01:06:22.102Z,74.07
2022-12-11T01:09:13.523Z,74.16
2022-12-11T01:11:49.342Z,74.41
2022-12-11T01:14:18.146Z,74.31
2022-12-11T01:16:46.577Z,74.48
2022-12-11T01:19:15.803Z,74.48
2022-12-11T01:21:44.189Z,74.61
2022-12-11T01:24:12.447Z,74.68
2022-12-11T01:26:40.683Z,74.84
2022-12-11T01:29:08.857Z,75.12
2022-12-11T01:31:37.975Z,75.25
2022-12-11T01:34:06.236Z,75.60
2022-12-11T01:36:34.501Z,75.91
2022-12-11T01:39:02.738Z,76.24
2022-12-11T01:41:31.025Z,76.93
2022-12-11T01:44:19.502Z,77.15
2022-12-11T01:46:48.109Z,77.67
2022-12-11T01:49:19.098Z,78.23
2022-12-11T01:51:53.218Z,78.66
2022-12-11T01:54:24.276Z,79.14
2022-12-11T01:56:56.333Z,79.47
2022-12-11T01:59:29.153Z,80.01
2022-12-11T02:02:03.513Z,80.42
2022-12-11T02:04:35.498Z,80.96
2022-12-11T02:07:04.550Z,81.58
2022-12-11T02:09:35.580Z,81.70
2022-12-11T02:12:26.909Z,82.48
2022-12-11T02:15:32.707Z,82.47
2022-12-11T02:18:30.206Z,82.96
2022-12-11T02:21:01.356Z,83.31
2022-12-11T02:24:17.216Z,83.09
2022-12-11T02:27:01.864Z,83.16
2022-12-11T02:29:39.732Z,83.33
2022-12-11T02:32:23.713Z,83.30
2022-12-11T02:35:15.422Z,83.11
2022-12-11T02:37:47.999Z,82.98
2022-12-11T02:40:21.820Z,83.08
2022-12-11T02:42:51.640Z,83.15
2022-12-11T02:45:23.039Z,83.56
2022-12-11T02:47:52.774Z,83.75
2022-12-11T02:50:23.923Z,83.91
2022-12-11T02:52:55.997Z,84.06
2022-12-11T02:55:26.373Z,84.34
2022-12-11T02:58:06.562Z,84.67
2022-12-11T03:00:36.780Z,84.76
2022-12-11T03:03:05.517Z,85.30
2022-12-11T03:05:33.823Z,84.97
2022-12-11T03:08:02.584Z,85.59
2022-12-11T03:10:31.106Z,85.52
2022-12-11T03:13:00.549Z,86.30
2022-12-11T03:15:55.040Z,86.42
2022-12-11T03:18:46.832Z,86.61
2022-12-11T03:21:27.297Z,86.54
2022-12-11T03:24:10.119Z,86.73
2022-12-11T03:26:43.837Z,86.78
2022-12-11T03:29:21.314Z,86.73
2022-12-11T03:31:59.722Z,86.65
2022-12-11T03:34:32.979Z,86.70
2022-12-11T03:37:03.485Z,86.83
2022-12-11T03:39:36.433Z,87.01
2022-12-11T03:42:08.395Z,87.63
2022-12-11T03:44:38.020Z,87.07
2022-12-11T03:47:09.669Z,87.19
2022-12-11T03:49:42.257Z,87.80
2022-12-11T03:52:12.894Z,87.94
2022-12-11T03:54:44.404Z,88.47
2022-12-11T03:57:16.848Z,87.92
2022-12-11T03:59:45.292Z,87.86
2022-12-11T04:02:13.560Z,87.73
2022-12-11T04:04:42.672Z,87.68
2022-12-11T04:07:10.998Z,87.67
2022-12-11T04:09:39.285Z,87.58
2022-12-11T04:12:07.621Z,87.70
2022-12-11T04:14:54.627Z,87.61
2022-12-11T04:17:41.373Z,87.63
2022-12-11T04:20:29.893Z,87.76
2022-12-11T04:23:16.710Z,88.43
2022-12-11T04:25:45.223Z,88.79
2022-12-11T04:28:13.515Z,88.67
2022-12-11T04:30:41.981Z,88.50
2022-12-11T04:33:10.296Z,88.50
2022-12-11T04:35:38.529Z,88.06
2022-12-11T04:38:06.775Z,88.01
2022-12-11T04:40:35.043Z,87.96
2022-12-11T04:43:03.588Z,88.39
2022-12-11T04:45:31.838Z,88.36
2022-12-11T04:48:00.101Z,88.29
2022-12-11T04:50:28.431Z,88.23
2022-12-11T04:52:57.461Z,88.69
2022-12-11T04:55:25.809Z,89.30
2022-12-11T04:57:54.132Z,89.80
2022-12-11T05:00:22.884Z,90.06
2022-12-11T05:02:51.196Z,90.10
2022-12-11T05:05:19.646Z,90.37
2022-12-11T05:07:47.984Z,90.42
2022-12-11T05:10:16.328Z,90.60
2022-12-11T05:12:44.560Z,90.70
2022-12-11T05:15:12.959Z,90.81
2022-12-11T05:17:41.450Z,90.56
2022-12-11T05:20:10.730Z,90.53
2022-12-11T05:22:39.366Z,90.39
2022-12-11T05:25:08.206Z,90.57
2022-12-11T05:27:36.531Z,90.39
2022-12-11T05:30:06.595Z,90.25
2022-12-11T05:32:35.281Z,90.65
2022-12-11T05:35:03.937Z,90.41
2022-12-11T05:37:33.548Z,91.00
2022-12-11T05:40:02.137Z,90.81
2022-12-11T05:42:30.420Z,90.96
2022-12-11T05:44:58.720Z,90.94
2022-12-11T05:47:26.987Z,90.74
2022-12-11T05:49:55.189Z,90.75
2022-12-11T05:52:23.496Z,90.63
2022-12-11T05:54:51.861Z,90.54
2022-12-11T05:57:20.106Z,90.37
2022-12-11T05:59:48.279Z,90.30
2022-12-11T06:02:16.648Z,90.26
2022-12-11T06:04:44.992Z,90.08
2022-12-11T06:07:13.692Z,90.11
2022-12-11T06:09:41.988Z,90.01
2022-12-11T06:12:10.289Z,90.02
2022-12-11T06:14:38.591Z,89.79
2022-12-11T06:17:07.614Z,89.97
2022-12-11T06:19:37.192Z,89.80
2022-12-11T06:22:05.470Z,90.05
2022-12-11T06:24:33.752Z,90.03
2022-12-11T06:27:02.010Z,90.06
2022-12-11T06:29:30.246Z,88.35
2022-12-11T06:31:58.593Z,87.50
2022-12-11T06:34:27.001Z,85.01
2022-12-11T06:36:55.233Z,83.56
2022-12-11T06:39:23.526Z,81.31
2022-12-11T06:41:58.134Z,80.13
2022-12-11T06:45:38.206Z,77.79
2022-12-11T06:48:23.210Z,76.44
2022-12-11T06:50:51.495Z,75.36
2022-12-11T06:53:19.720Z,74.05
2022-12-11T06:55:47.974Z,72.72
2022-12-11T06:58:17.960Z,70.93
2022-12-11T07:00:46.243Z,70.84
2022-12-11T07:03:16.712Z,70.18
2022-12-11T07:05:44.973Z,70.28
2022-12-11T07:08:13.235Z,69.90
2022-12-11T07:10:43.807Z,69.53
2022-12-11T07:13:12.106Z,68.83
2022-12-11T07:15:40.711Z,67.53
2022-12-11T07:18:11.599Z,67.85
2022-12-11T07:20:40.098Z,67.39
2022-12-11T07:23:09.232Z,67.56
2022-12-11T07:25:38.192Z,67.64
2022-12-11T07:28:06.527Z,67.64
2022-12-11T07:30:34.829Z,67.49
2022-12-11T07:33:03.261Z,66.85
2022-12-11T07:35:31.654Z,67.55
2022-12-11T07:37:59.930Z,67.33
2022-12-11T07:40:28.351Z,67.62
2022-12-11T07:42:56.793Z,67.92
2022-12-11T07:45:26.498Z,67.90
2022-12-11T07:47:54.756Z,67.84
2022-12-11T07:50:23.111Z,67.97
2022-12-11T07:52:51.376Z,67.79
2022-12-11T07:55:19.663Z,68.29
2022-12-11T07:57:47.925Z,68.54
2022-12-11T08:00:17.014Z,68.86
2022-12-11T08:02:45.279Z,68.95
2022-12-11T08:05:13.835Z,69.31
2022-12-11T08:07:42.354Z,69.13
2022-12-11T08:10:10.625Z,70.06
2022-12-11T08:12:38.891Z,69.96
2022-12-11T08:15:07.743Z,69.96
2022-12-11T08:17:39.969Z,70.11
2022-12-11T08:20:09.081Z,69.25
2022-12-11T08:22:37.357Z,69.61
2022-12-11T08:25:06.156Z,69.14
2022-12-11T08:27:34.370Z,69.12
2022-12-11T08:30:02.891Z,69.14
2022-12-11T08:32:31.170Z,69.04
2022-12-11T08:34:59.444Z,68.80
2022-12-11T08:37:28.114Z,68.86
2022-12-11T08:39:56.390Z,68.79
2022-12-11T08:42:24.588Z,69.04
2022-12-11T08:44:52.780Z,69.43
2022-12-11T08:47:21.528Z,69.63
2022-12-11T08:49:49.728Z,70.07
2022-12-11T08:52:18.016Z,70.78
2022-12-11T08:54:46.189Z,70.93
2022-12-11T08:57:14.457Z,70.31
2022-12-11T08:59:42.739Z,70.44
2022-12-11T09:02:13.534Z,71.05
2022-12-11T09:04:42.046Z,71.32
2022-12-11T09:07:10.666Z,71.02
2022-12-11T09:09:39.011Z,71.15
2022-12-11T09:12:07.652Z,71.63
2022-12-11T09:14:35.925Z,71.40
2022-12-11T09:17:05.618Z,71.82
2022-12-11T09:19:33.901Z,72.19
2022-12-11T09:22:02.177Z,72.08
2022-12-11T09:24:30.435Z,71.64
2022-12-11T09:26:58.737Z,71.25
2022-12-11T09:29:26.958Z,70.48
2022-12-11T09:31:57.108Z,69.68
2022-12-11T09:34:29.234Z,69.78
2022-12-11T09:36:58.373Z,69.50
2022-12-11T09:39:26.693Z,67.97
2022-12-11T09:42:20.955Z,67.34
2022-12-11T09:44:53.589Z,67.77
2022-12-11T09:47:36.067Z,66.89
2022-12-11T09:50:17.741Z,66.60
2022-12-11T09:53:00.191Z,66.01
2022-12-11T09:55:55.250Z,66.05
2022-12-11T09:58:50.769Z,67.17
2022-12-11T10:01:30.132Z,67.66
2022-12-11T10:04:28.721Z,66.39
2022-12-11T10:07:02.964Z,64.38
2022-12-11T10:09:57.347Z,64.72
2022-12-11T10:12:46.625Z,65.58
2022-12-11T10:15:43.228Z,66.90
2022-12-11T10:18:16.336Z,66.81
2022-12-11T10:20:45.541Z,66.95
2022-12-11T10:23:40.589Z,67.35
2022-12-11T10:26:16.866Z,67.40
2022-12-11T10:28:45.229Z,67.23
2022-12-11T10:31:40.761Z,66.43
2022-12-11T10:34:15.147Z,67.16
2022-12-11T10:36:44.764Z,67.07
2022-12-11T10:39:16.049Z,66.18
2022-12-11T10:41:46.952Z,65.35
2022-12-11T10:44:33.264Z,65.04
2022-12-11T10:47:13.948Z,65.66
2022-12-11T10:50:00.562Z,65.48
2022-12-11T10:52:34.491Z,65.29
2022-12-11T10:55:07.031Z,65.30
2022-12-11T10:57:37.315Z,64.61
2022-12-11T11:00:26.638Z,64.71
2022-12-11T11:02:55.598Z,65.15
2022-12-11T11:05:36.105Z,65.70
2022-12-11T11:08:20.229Z,65.17
2022-12-11T11:10:57.591Z,65.07
2022-12-11T11:13:29.125Z,64.72
2022-12-11T11:16:04.608Z,65.20
2022-12-11T11:18:34.360Z,64.59
2022-12-11T11:21:03.431Z,65.01
2022-12-11T11:23:31.857Z,64.43
2022-12-11T11:26:02.725Z,64.86
2022-12-11T11:28:34.254Z,64.81
2022-12-11T11:31:15.834Z,64.57
2022-12-11T11:33:54.157Z,63.25
2022-12-11T11:36:28.125Z,63.17
2022-12-11T11:39:29.812Z,62.01
2022-12-11T11:42:21.300Z,61.47
2022-12-11T11:45:10.347Z,61.25
2022-12-11T11:47:51.453Z,60.22
2022-12-11T11:50:24.963Z,60.87
2022-12-11T11:53:04.125Z,59.83
2022-12-11T11:55:39.852Z,60.47
2022-12-11T11:58:15.902Z,60.20
2022-12-11T12:00:44.233Z,59.85
2022-12-11T12:03:18.496Z,59.63
2022-12-11T12:05:58.453Z,60.76
2022-12-11T12:08:32.700Z,60.98
2022-12-11T12:11:00.953Z,61.11
2022-12-11T12:13:58.308Z,61.12
2022-12-11T12:16:56.229Z,61.46
2022-12-11T12:19:33.412Z,61.81
2022-12-11T12:22:16.853Z,62.25
2022-12-11T12:24:53.879Z,62.61
2022-12-11T12:27:51.740Z,63.11
2022-12-11T12:30:23.037Z,63.76
2022-12-11T12:33:13.109Z,63.62
2022-12-11T12:36:18.141Z,63.59
2022-12-11T12:39:01.321Z,63.95
2022-12-11T12:41:47.484Z,64.01
2022-12-11T12:44:19.279Z,63.97
2022-12-11T12:47:00.341Z,64.57
2022-12-11T12:49:33.116Z,65.15
2022-12-11T12:52:02.888Z,64.81
2022-12-11T12:54:33.514Z,65.04
2022-12-11T12:57:04.326Z,65.12
2022-12-11T12:59:32.486Z,65.16
2022-12-11T13:02:03.200Z,65.40
2022-12-11T13:04:56.317Z,65.73
2022-12-11T13:07:32.871Z,65.80
2022-12-11T13:10:28.428Z,65.53
2022-12-11T13:12:57.423Z,65.48
2022-12-11T13:15:44.027Z,65.50
2022-12-11T13:18:36.200Z,66.11
2022-12-11T13:21:32.479Z,66.26
2022-12-11T13:24:13.117Z,66.74
2022-12-11T13:26:44.037Z,66.66
2022-12-11T13:29:31.746Z,67.04
2022-12-11T13:32:22.578Z,67.20
2022-12-11T13:34:55.662Z,67.35
2022-12-11T13:37:34.916Z,67.80
2022-12-11T13:40:08.503Z,68.05
2022-12-11T13:42:50.376Z,68.07
2022-12-11T13:45:40.935Z,67.97
2022-12-11T13:48:38.094Z,68.89
2022-12-11T13:51:07.368Z,68.95
2022-12-11T13:53:35.713Z,69.14
2022-12-11T13:56:06.736Z,69.43
2022-12-11T13:58:38.222Z,69.38
2022-12-11T14:01:11.452Z,69.35
2022-12-11T14:03:56.618Z,69.77
2022-12-11T14:06:27.698Z,70.15
2022-12-11T14:08:59.523Z,70.12
2022-12-11T14:11:56.471Z,70.65
2022-12-11T14:14:49.999Z,71.04
2022-12-11T14:17:27.368Z,70.55
2022-12-11T14:19:58.182Z,70.49
2022-12-11T14:22:28.982Z,70.92
2022-12-11T14:24:58.459Z,71.97
2022-12-11T14:27:28.186Z,71.90
2022-12-11T14:29:56.916Z,72.13
2022-12-11T14:32:35.784Z,71.93
2022-12-11T14:35:08.637Z,71.79
2022-12-11T14:37:37.450Z,71.63
2022-12-11T14:40:08.469Z,72.36
2022-12-11T14:42:41.191Z,71.79
2022-12-11T14:45:25.318Z,71.64
2022-12-11T14:47:55.272Z,71.78
2022-12-11T14:50:35.215Z,71.85
2022-12-11T14:53:29.447Z,71.72
2022-12-11T14:56:02.594Z,71.59
2022-12-11T14:58:33.280Z,71.30
2022-12-11T15:01:22.479Z,71.47
2022-12-11T15:04:01.637Z,71.49
2022-12-11T15:06:35.778Z,71.91
2022-12-11T15:09:37.554Z,72.41
2022-12-11T15:12:15.741Z,72.70
2022-12-11T15:15:04.175Z,72.44
2022-12-11T15:17:34.734Z,72.76
2022-12-11T15:20:07.648Z,72.82
2022-12-11T15:22:39.318Z,73.02
2022-12-11T15:25:21.837Z,72.80
2022-12-11T15:27:59.775Z,73.02
2022-12-11T15:30:31.356Z,73.26
2022-12-11T15:33:11.729Z,72.99
2022-12-11T15:35:52.402Z,73.13
2022-12-11T15:38:47.627Z,73.18
2022-12-11T15:41:26.056Z,73.10
2022-12-11T15:43:58.835Z,73.02
2022-12-11T15:46:28.007Z,73.62
2022-12-11T15:48:57.735Z,73.63
2022-12-11T15:51:27.768Z,73.95
2022-12-11T15:53:56.045Z,73.33
2022-12-11T15:56:26.637Z,73.72
2022-12-11T15:59:01.325Z,74.40
2022-12-11T16:01:29.574Z,74.35
2022-12-11T16:04:01.801Z,74.44
2022-12-11T16:06:33.564Z,74.60
2022-12-11T16:09:04.197Z,74.90
2022-12-11T16:11:32.492Z,74.89
2022-12-11T16:14:04.374Z,75.18
2022-12-11T16:16:32.841Z,74.70
2022-12-11T16:19:01.091Z,74.51
2022-12-11T16:21:29.475Z,74.60
2022-12-11T16:23:57.766Z,75.33
2022-12-11T16:26:26.126Z,75.03
2022-12-11T16:29:01.795Z,74.77
2022-12-11T16:31:32.577Z,74.99
2022-12-11T16:34:03.195Z,74.73
2022-12-11T16:36:31.576Z,75.02
2022-12-11T16:39:01.665Z,75.39
2022-12-11T16:41:30.125Z,75.82
2022-12-11T16:44:01.220Z,75.38
2022-12-11T16:46:29.646Z,75.52
2022-12-11T16:48:57.969Z,75.63
2022-12-11T16:51:26.272Z,75.85
2022-12-11T16:53:56.898Z,76.22
2022-12-11T16:56:26.722Z,76.89
2022-12-11T16:58:57.512Z,77.02
2022-12-11T17:01:25.812Z,76.78
2022-12-11T17:03:54.924Z,77.21
2022-12-11T17:06:23.700Z,76.94
2022-12-11T17:08:53.583Z,77.16
2022-12-11T17:11:26.434Z,77.50
2022-12-11T17:13:56.333Z,78.10
2022-12-11T17:16:26.609Z,77.45
2022-12-11T17:18:58.447Z,77.26
2022-12-11T17:21:26.949Z,77.74
2022-12-11T17:23:55.330Z,77.53
2022-12-11T17:26:25.404Z,77.64
2022-12-11T17:28:53.838Z,77.61
2022-12-11T17:31:22.175Z,77.85
2022-12-11T17:33:50.620Z,78.32
2022-12-11T17:36:21.120Z,77.88
2022-12-11T17:38:50.181Z,77.83
2022-12-11T17:41:21.137Z,77.98
2022-12-11T17:43:53.326Z,78.03
2022-12-11T17:46:21.756Z,77.72
2022-12-11T17:48:50.231Z,77.93
2022-12-11T17:51:24.745Z,77.85
2022-12-11T17:53:56.171Z,77.73
2022-12-11T17:56:26.179Z,77.34
2022-12-11T17:58:54.585Z,77.17
2022-12-11T18:01:22.816Z,77.20
2022-12-11T18:03:51.219Z,77.34
2022-12-11T18:06:19.580Z,77.36
2022-12-11T18:08:47.978Z,77.08
2022-12-11T18:11:18.635Z,76.99
2022-12-11T18:13:48.973Z,76.88
2022-12-11T18:16:21.224Z,77.24
2022-12-11T18:18:50.566Z,77.36
2022-12-11T18:21:25.404Z,77.66
2022-12-11T18:23:54.195Z,77.48
2022-12-11T18:26:25.726Z,77.06
2022-12-11T18:28:54.764Z,76.85
2022-12-11T18:31:23.642Z,76.77
2022-12-11T18:33:52.944Z,76.74
2022-12-11T18:36:22.168Z,76.66
2022-12-11T18:38:50.500Z,76.26
2022-12-11T18:41:20.169Z,76.11
2022-12-11T18:43:48.579Z,76.23
2022-12-11T18:46:20.174Z,76.38
2022-12-11T18:48:48.721Z,76.36
2022-12-11T18:51:23.823Z,76.40
2022-12-11T18:53:52.628Z,76.36
2022-12-11T18:56:21.545Z,76.38
2022-12-11T18:58:51.879Z,76.17
2022-12-11T19:01:24.446Z,76.31
2022-12-11T19:04:05.568Z,76.67
2022-12-11T19:06:37.339Z,76.82
2022-12-11T19:09:07.854Z,76.95
2022-12-11T19:11:39.714Z,77.25
2022-12-11T19:14:08.673Z,77.39
2022-12-11T19:16:40.728Z,77.39
2022-12-11T19:19:14.482Z,76.91
2022-12-11T19:21:43.608Z,76.94
2022-12-11T19:24:18.294Z,77.33
2022-12-11T19:26:46.661Z,77.93
2022-12-11T19:29:21.667Z,77.18
2022-12-11T19:31:50.052Z,77.26
2022-12-11T19:34:18.605Z,77.30
2022-12-11T19:36:47.683Z,77.34
2022-12-11T19:39:16.262Z,76.60
2022-12-11T19:41:44.533Z,76.72
2022-12-11T19:44:12.872Z,76.83
2022-12-11T19:46:41.607Z,76.69
2022-12-11T19:49:11.968Z,76.72
2022-12-11T19:51:42.100Z,76.63
2022-12-11T19:54:14.627Z,76.60
2022-12-11T19:56:43.616Z,76.57
2022-12-11T19:59:16.672Z,76.44
2022-12-11T20:01:48.329Z,76.78
2022-12-11T20:04:17.972Z,76.87
2022-12-11T20:06:47.543Z,77.03
2022-12-11T20:09:16.428Z,77.38
2022-12-11T20:11:45.676Z,77.24
2022-12-11T20:14:20.057Z,76.92
2022-12-11T20:19:39.429Z,76.95
2022-12-11T20:22:07.786Z,77.11
2022-12-11T20:24:36.458Z,77.23
2022-12-11T20:27:05.087Z,77.47
2022-12-11T20:29:33.393Z,77.44
2022-12-11T20:32:01.741Z,77.55
2022-12-11T20:34:29.915Z,77.89
2022-12-11T20:37:00.323Z,77.68
2022-12-11T20:39:29.257Z,77.57
2022-12-11T20:41:57.975Z,77.19
2022-12-11T20:44:26.381Z,77.23
2022-12-11T20:46:55.324Z,76.98
2022-12-11T20:49:23.706Z,76.90
2022-12-11T20:51:52.076Z,77.12
2022-12-11T20:54:20.430Z,77.12
2022-12-11T20:56:48.792Z,77.20
2022-12-11T20:59:17.684Z,77.25
2022-12-11T21:01:46.233Z,77.62
2022-12-11T21:04:14.571Z,77.67
2022-12-11T21:06:42.948Z,77.84
2022-12-11T21:09:14.404Z,78.04
2022-12-11T21:11:42.687Z,78.40
2022-12-11T21:14:11.013Z,78.23
2022-12-11T21:16:39.552Z,78.57
2022-12-11T21:19:10.211Z,78.89
2022-12-11T21:21:43.107Z,78.98
2022-12-11T21:24:18.769Z,78.71
2022-12-11T21:26:48.198Z,78.67
2022-12-11T21:29:17.220Z,78.71
2022-12-11T21:31:45.547Z,78.88
2022-12-11T21:34:14.227Z,78.92
2022-12-11T21:36:42.509Z,78.62
2022-12-11T21:39:12.339Z,78.58
2022-12-11T21:41:41.466Z,78.64
2022-12-11T21:46:59.665Z,78.61
2022-12-11T21:49:27.962Z,78.38
2022-12-11T21:51:56.521Z,78.20
2022-12-11T21:54:24.837Z,77.99
2022-12-11T21:56:58.844Z,77.96
2022-12-11T21:59:28.817Z,77.72
2022-12-11T22:01:57.125Z,77.41
2022-12-11T22:04:25.414Z,77.21
2022-12-11T22:06:53.887Z,77.44
2022-12-11T22:09:22.178Z,77.56
2022-12-11T22:11:55.041Z,77.05
2022-12-11T22:14:26.943Z,77.10
2022-12-11T22:16:55.258Z,77.80
2022-12-11T22:19:27.745Z,77.29
2022-12-11T22:21:58.987Z,76.95
2022-12-11T22:24:27.251Z,77.02
2022-12-11T22:26:55.535Z,77.00
2022-12-11T22:29:23.916Z,76.77
2022-12-11T22:31:53.033Z,76.78
2022-12-11T22:34:22.125Z,76.51
2022-12-11T22:36:50.479Z,76.64
2022-12-11T22:39:18.855Z,76.71
2022-12-11T22:41:47.186Z,76.29
2022-12-11T22:44:18.439Z,76.05
2022-12-11T22:46:49.959Z,76.24
2022-12-11T22:49:20.023Z,76.05
2022-12-11T22:51:49.155Z,76.06
2022-12-11T22:54:17.531Z,76.08
2022-12-11T22:56:45.810Z,76.34
2022-12-11T22:59:14.039Z,76.20
2022-12-11T23:01:42.405Z,76.21
2022-12-11T23:04:10.698Z,76.48
2022-12-11T23:06:41.553Z,76.29
2022-12-11T23:09:11.292Z,76.44
2022-12-11T23:11:40.120Z,76.09
2022-12-11T23:14:13.518Z,76.40
2022-12-11T23:16:42.091Z,76.71
2022-12-11T23:19:11.718Z,76.76
2022-12-11T23:21:40.559Z,76.56
2022-12-11T23:24:09.412Z,76.29
2022-12-11T23:26:38.600Z,76.26
2022-12-11T23:29:06.949Z,76.38
2022-12-11T23:31:35.412Z,76.46
2022-12-11T23:34:03.644Z,76.75
2022-12-11T23:36:31.966Z,76.77
2022-12-11T23:39:00.237Z,77.04
2022-12-11T23:41:28.452Z,76.51
2022-12-11T23:43:56.677Z,76.59
2022-12-11T23:46:25.618Z,76.86
2022-12-11T23:48:54.661Z,76.80
2022-12-11T23:51:25.091Z,77.09
2022-12-11T23:53:53.538Z,77.22
2022-12-11T23:56:25.015Z,77.21
2022-12-11T23:58:54.151Z,77.08
